Time;durP1;ratioP1;P1;durP2;ratioP2;P2;SDS_P1;SDS_P2;PMS_P1;PMS_P2;Temp;Humidity;BMP_temperature;BMP_pressure;BME280_temperature;BME280_humidity;BME280_pressure;Samples;Min_cycle;Max_cycle;Signal;HPM_P1;HPM_P2
2023/04/08 00:00:18;;;;;;;29.60;21.00;;;7.50;99.90;;;;;;5056253;28;20473;-65
2023/04/08 00:02:55;;;;;;;29.30;21.93;;;7.40;99.90;;;;;;5056444;28;20887;-65
2023/04/08 00:05:23;;;;;;;27.70;19.93;;;7.50;99.90;;;;;;5056664;28;20466;-65
2023/04/08 00:07:50;;;;;;;26.50;19.67;;;7.50;99.90;;;;;;5056122;28;20448;-65
2023/04/08 00:10:17;;;;;;;31.27;22.53;;;7.40;99.90;;;;;;5056459;28;20467;-65
2023/04/08 00:12:44;;;;;;;29.13;21.67;;;7.40;99.90;;;;;;5059607;28;20855;-65
2023/04/08 00:15:11;;;;;;;30.80;22.30;;;7.40;99.90;;;;;;5060239;28;20925;-65
2023/04/08 00:17:39;;;;;;;31.07;23.00;;;7.40;99.90;;;;;;5060041;28;20472;-65
2023/04/08 00:20:08;;;;;;;30.90;23.23;;;7.40;99.90;;;;;;5059740;28;20462;-65
2023/04/08 00:22:36;;;;;;;31.73;21.73;;;7.40;99.90;;;;;;5060109;28;20493;-65
2023/04/08 00:25:05;;;;;;;30.53;22.20;;;7.40;99.90;;;;;;5059660;28;20462;-65
2023/04/08 00:27:35;;;;;;;33.90;24.30;;;7.50;99.90;;;;;;5059153;28;20440;-65
2023/04/08 00:30:03;;;;;;;37.20;24.70;;;7.40;99.90;;;;;;5059321;28;20470;-65
2023/04/08 00:32:38;;;;;;;31.30;23.60;;;7.50;99.90;;;;;;5059675;28;20496;-65
2023/04/08 00:35:08;;;;;;;32.40;24.13;;;7.50;99.90;;;;;;5060033;28;20466;-65
2023/04/08 00:37:35;;;;;;;32.20;23.33;;;7.50;99.90;;;;;;5059352;28;20493;-65
2023/04/08 00:40:03;;;;;;;30.17;24.00;;;7.50;99.90;;;;;;5059253;28;20545;-65
2023/04/08 00:42:31;;;;;;;33.13;24.60;;;7.50;99.90;;;;;;5059182;28;20807;-65
2023/04/08 00:44:58;;;;;;;32.53;24.50;;;7.40;99.90;;;;;;5059330;28;20465;-65
2023/04/08 00:47:25;;;;;;;35.00;24.93;;;7.50;99.90;;;;;;5059447;28;20459;-65
2023/04/08 00:49:52;;;;;;;36.10;25.20;;;7.50;99.90;;;;;;5059312;28;20466;-65
2023/04/08 00:52:21;;;;;;;34.63;25.87;;;7.50;99.90;;;;;;5058514;28;20529;-65
2023/04/08 00:54:48;;;;;;;32.67;22.80;;;7.40;99.90;;;;;;5059144;28;20899;-65
2023/04/08 00:57:15;;;;;;;31.03;22.30;;;7.30;99.90;;;;;;5059361;28;20466;-65
2023/04/08 00:59:43;;;;;;;30.90;23.00;;;7.30;99.90;;;;;;5059059;28;20454;-65
2023/04/08 01:02:17;;;;;;;34.93;24.37;;;7.20;99.90;;;;;;5058520;28;20903;-65
2023/04/08 01:04:55;;;;;;;36.50;25.77;;;7.20;99.90;;;;;;5058478;28;20483;-65
2023/04/08 01:07:27;;;;;;;30.13;22.00;;;7.20;99.90;;;;;;5059263;28;20740;-65
2023/04/08 01:09:57;;;;;;;32.43;23.00;;;7.10;99.90;;;;;;5059130;28;20759;-65
2023/04/08 01:12:27;;;;;;;32.23;23.10;;;7.10;99.90;;;;;;5058704;28;20584;-65
2023/04/08 01:15:00;;;;;;;35.17;23.73;;;7.00;99.90;;;;;;5059093;28;20769;-65
2023/04/08 01:17:27;;;;;;;33.30;23.40;;;7.00;99.90;;;;;;5059402;28;20440;-65
2023/04/08 01:19:58;;;;;;;32.03;22.33;;;7.00;99.90;;;;;;5058469;28;20454;-65
2023/04/08 01:22:34;;;;;;;36.50;23.50;;;6.90;99.90;;;;;;5057947;28;20445;-65
2023/04/08 01:25:07;;;;;;;33.50;21.93;;;6.90;99.90;;;;;;5058566;28;20469;-65
2023/04/08 01:27:37;;;;;;;35.03;23.57;;;6.90;99.90;;;;;;5058744;28;20523;-65
2023/04/08 01:30:06;;;;;;;33.30;22.80;;;6.80;99.90;;;;;;5058305;28;20566;-65
2023/04/08 01:32:35;;;;;;;32.07;21.67;;;6.90;99.90;;;;;;5058432;28;20948;-65
2023/04/08 01:35:03;;;;;;;34.07;22.53;;;6.90;99.90;;;;;;5058468;28;20466;-65
2023/04/08 01:37:31;;;;;;;30.63;20.80;;;6.90;99.90;;;;;;5058508;28;20486;-65
2023/04/08 01:40:01;;;;;;;33.37;22.27;;;6.90;99.90;;;;;;5058767;28;20439;-65
2023/04/08 01:42:33;;;;;;;35.07;22.13;;;6.90;99.90;;;;;;5058794;28;20454;-65
2023/04/08 01:45:03;;;;;;;35.13;21.87;;;6.90;99.90;;;;;;5058481;28;20458;-65
2023/04/08 01:47:31;;;;;;;35.53;21.00;;;6.90;99.90;;;;;;5058908;28;20469;-65
2023/04/08 01:50:03;;;;;;;38.67;21.67;;;6.90;99.90;;;;;;5058542;28;20458;-65
2023/04/08 01:52:32;;;;;;;31.43;19.80;;;6.80;99.90;;;;;;5058075;28;20496;-65
2023/04/08 01:55:00;;;;;;;32.30;19.80;;;6.70;99.90;;;;;;5057827;28;20433;-65
2023/04/08 01:57:30;;;;;;;31.17;19.27;;;6.70;99.90;;;;;;5058466;28;20462;-65
2023/04/08 02:00:02;;;;;;;34.80;20.10;;;6.70;99.90;;;;;;5057730;28;20476;-65
2023/04/08 02:02:31;;;;;;;40.80;21.07;;;6.70;99.90;;;;;;5058044;28;20441;-65
2023/04/08 02:05:04;;;;;;;49.27;21.07;;;6.60;99.90;;;;;;5057715;28;20441;-65
2023/04/08 02:07:31;;;;;;;33.37;21.63;;;6.70;99.90;;;;;;5058176;28;20829;-65
2023/04/08 02:09:59;;;;;;;34.73;19.90;;;6.70;99.90;;;;;;5058345;28;20469;-65
2023/04/08 02:12:27;;;;;;;34.83;19.63;;;6.70;99.90;;;;;;5057962;28;20890;-65
2023/04/08 02:14:56;;;;;;;31.50;21.40;;;6.70;99.90;;;;;;5057750;28;20433;-65
2023/04/08 02:17:33;;;;;;;37.70;21.10;;;6.70;99.90;;;;;;5057160;28;20449;-65
2023/04/08 02:20:06;;;;;;;37.37;21.87;;;6.70;99.90;;;;;;5057422;28;20458;-65
2023/04/08 02:22:45;;;;;;;38.17;20.07;;;6.70;99.90;;;;;;5057723;28;20824;-65
2023/04/08 02:25:17;;;;;;;36.23;20.87;;;6.70;99.90;;;;;;5058304;28;20820;-65
2023/04/08 02:27:47;;;;;;;86.10;23.20;;;6.80;99.90;;;;;;5054558;28;20911;-65
2023/04/08 02:30:16;;;;;;;85.73;24.07;;;6.80;99.90;;;;;;5056317;28;20466;-65
2023/04/08 02:32:48;;;;;;;78.03;21.63;;;6.70;99.90;;;;;;5055360;28;20497;-65
2023/04/08 02:35:16;;;;;;;56.70;20.40;;;6.60;99.90;;;;;;5056249;28;20462;-65
2023/04/08 02:37:44;;;;;;;81.50;21.67;;;6.60;99.90;;;;;;5056244;28;20509;-65
2023/04/08 02:40:28;;;;;;;43.67;21.10;;;6.60;99.90;;;;;;5056112;28;20801;-65
2023/04/08 02:42:56;;;;;;;67.80;19.10;;;6.60;99.90;;;;;;5056185;28;20750;-65
2023/04/08 02:45:25;;;;;;;41.10;17.47;;;6.50;99.90;;;;;;5057074;28;20532;-65
2023/04/08 02:47:54;;;;;;;83.67;19.73;;;6.50;99.90;;;;;;5056689;28;20467;-65
2023/04/08 02:50:21;;;;;;;102.97;24.17;;;6.40;99.90;;;;;;5057119;28;20493;-65
2023/04/08 02:52:51;;;;;;;51.33;17.83;;;6.30;99.90;;;;;;5056662;28;20486;-65
2023/04/08 02:55:18;;;;;;;44.80;18.13;;;6.30;99.90;;;;;;5056445;28;20439;-65
2023/04/08 02:57:48;;;;;;;51.13;19.20;;;6.40;99.90;;;;;;5057518;28;20485;-65
2023/04/08 03:00:16;;;;;;;64.73;20.20;;;6.40;99.90;;;;;;5056635;28;20469;-65
2023/04/08 03:02:43;;;;;;;72.93;19.70;;;6.40;99.90;;;;;;5057462;28;20462;-65
2023/04/08 03:05:11;;;;;;;107.47;21.77;;;6.40;99.90;;;;;;5056892;28;20468;-65
2023/04/08 03:07:39;;;;;;;61.40;17.13;;;6.40;99.90;;;;;;5056703;28;20454;-65
2023/04/08 03:10:07;;;;;;;96.53;22.23;;;6.40;99.90;;;;;;5056737;28;20485;-65
2023/04/08 03:12:35;;;;;;;45.00;16.30;;;6.40;99.90;;;;;;5056929;28;20443;-65
2023/04/08 03:15:02;;;;;;;49.03;17.93;;;6.30;99.90;;;;;;5057100;28;20764;-65
2023/04/08 03:17:32;;;;;;;60.90;17.67;;;6.30;99.90;;;;;;5057003;28;20506;-65
2023/04/08 03:19:59;;;;;;;69.67;19.27;;;6.30;99.90;;;;;;5056902;28;20494;-65
2023/04/08 03:22:28;;;;;;;74.07;20.50;;;6.20;99.90;;;;;;5056771;28;20556;-65
2023/04/08 03:25:06;;;;;;;41.77;17.70;;;6.30;99.90;;;;;;5057263;28;20481;-65
2023/04/08 03:27:33;;;;;;;58.73;18.93;;;6.20;99.90;;;;;;5055018;28;20848;-65
2023/04/08 03:30:03;;;;;;;78.77;18.93;;;6.30;99.90;;;;;;5037144;28;20463;-65
2023/04/08 03:32:30;;;;;;;67.07;17.90;;;6.30;99.90;;;;;;5052396;28;20445;-65
2023/04/08 03:35:02;;;;;;;34.80;17.63;;;6.20;99.90;;;;;;5055299;28;20535;-65
2023/04/08 03:37:45;;;;;;;128.07;22.00;;;6.20;99.90;;;;;;5055550;28;20500;-65
2023/04/08 03:40:14;;;;;;;103.67;22.10;;;6.20;99.90;;;;;;5056798;28;20551;-65
2023/04/08 03:42:41;;;;;;;69.57;19.53;;;6.20;99.90;;;;;;5056851;28;20476;-65
2023/04/08 03:45:14;;;;;;;45.97;17.63;;;6.20;99.90;;;;;;5056239;28;20441;-65
2023/04/08 03:47:50;;;;;;;154.13;24.13;;;6.20;99.90;;;;;;5059563;28;20503;-65
2023/04/08 03:50:23;;;;;;;146.87;21.60;;;6.20;99.90;;;;;;5060415;28;20457;-65
2023/04/08 03:53:01;;;;;;;181.83;25.37;;;6.20;99.90;;;;;;5060424;28;20556;-65
2023/04/08 03:55:30;;;;;;;102.93;19.33;;;6.10;99.90;;;;;;5060260;28;20464;-65
2023/04/08 03:57:57;;;;;;;201.70;27.50;;;6.10;99.90;;;;;;5060647;28;20462;-65
2023/04/08 04:00:25;;;;;;;40.27;17.70;;;6.20;99.90;;;;;;5060519;28;20489;-65
2023/04/08 04:02:52;;;;;;;169.67;24.40;;;6.10;99.90;;;;;;5060375;28;20462;-65
2023/04/08 04:05:19;;;;;;;38.77;13.50;;;6.00;99.90;;;;;;5060590;28;20762;-65
2023/04/08 04:07:46;;;;;;;187.90;25.80;;;6.00;99.90;;;;;;5060291;28;20951;-65
2023/04/08 04:10:15;;;;;;;109.10;19.17;;;6.00;99.90;;;;;;5060149;28;20461;-65
2023/04/08 04:12:43;;;;;;;153.00;22.33;;;5.80;99.90;;;;;;5060295;28;20459;-65
2023/04/08 04:15:11;;;;;;;63.00;16.73;;;5.80;99.90;;;;;;5059830;28;20501;-65
2023/04/08 04:17:38;;;;;;;39.43;13.27;;;5.80;99.90;;;;;;5059447;28;20473;-65
2023/04/08 04:20:06;;;;;;;125.77;22.33;;;5.80;99.90;;;;;;5060027;28;20462;-65
2023/04/08 04:22:33;;;;;;;121.97;21.53;;;5.80;99.90;;;;;;5059776;28;20885;-65
2023/04/08 04:25:07;;;;;;;56.17;18.03;;;5.90;99.90;;;;;;5060312;28;20461;-65
2023/04/08 04:27:36;;;;;;;85.07;19.73;;;5.90;99.90;;;;;;5060177;28;20516;-65
2023/04/08 04:30:04;;;;;;;137.77;22.17;;;5.90;99.90;;;;;;5058466;28;20466;-65
2023/04/08 04:32:31;;;;;;;159.90;21.40;;;5.90;99.90;;;;;;5059261;28;20466;-65
2023/04/08 04:34:59;;;;;;;167.03;23.50;;;5.90;99.90;;;;;;5059279;28;20493;-65
2023/04/08 04:37:26;;;;;;;106.07;18.07;;;5.80;99.90;;;;;;5059572;28;20489;-65
2023/04/08 04:39:53;;;;;;;30.23;13.00;;;5.80;99.90;;;;;;5059685;28;20463;-65
2023/04/08 04:42:20;;;;;;;179.53;22.63;;;5.80;99.90;;;;;;5059887;28;20883;-65
2023/04/08 04:44:49;;;;;;;29.43;13.30;;;5.70;99.90;;;;;;5059425;28;20458;-65
2023/04/08 04:47:17;;;;;;;113.07;21.27;;;5.70;99.90;;;;;;5059621;28;20532;-65
2023/04/08 04:49:45;;;;;;;56.27;16.00;;;5.70;99.90;;;;;;5059947;28;20462;-65
2023/04/08 04:52:12;;;;;;;52.63;14.67;;;5.70;99.90;;;;;;5059160;28;20466;-65
2023/04/08 04:54:40;;;;;;;49.57;14.97;;;5.70;99.90;;;;;;5058927;28;20769;-65
2023/04/08 04:57:07;;;;;;;71.40;17.30;;;5.70;99.90;;;;;;5058997;28;20464;-65
2023/04/08 04:59:35;;;;;;;174.17;24.57;;;5.70;99.90;;;;;;5058052;28;20470;-65
2023/04/08 05:02:04;;;;;;;74.20;17.90;;;5.70;99.90;;;;;;5059674;28;20867;-65
2023/04/08 05:04:31;;;;;;;139.37;20.23;;;5.60;99.90;;;;;;5058271;28;20455;-66
2023/04/08 05:06:59;;;;;;;117.17;20.70;;;5.60;99.90;;;;;;5058749;28;20458;-65
2023/04/08 05:09:26;;;;;;;113.67;18.30;;;5.60;99.90;;;;;;5058655;28;20478;-66
2023/04/08 05:11:54;;;;;;;40.57;13.43;;;5.60;99.90;;;;;;5058856;28;20465;-66
2023/04/08 05:14:21;;;;;;;145.77;19.77;;;5.50;99.90;;;;;;5058867;28;20589;-66
2023/04/08 05:16:48;;;;;;;100.70;17.73;;;5.50;99.90;;;;;;5058610;28;20466;-66
2023/04/08 05:19:16;;;;;;;57.83;12.83;;;5.50;99.90;;;;;;5058919;28;20466;-66
2023/04/08 05:21:43;;;;;;;86.00;14.30;;;5.50;99.90;;;;;;5058901;28;20461;-66
2023/04/08 05:24:11;;;;;;;181.97;20.33;;;5.50;99.90;;;;;;5059018;28;20450;-66
2023/04/08 05:26:38;;;;;;;120.73;16.43;;;5.50;99.90;;;;;;5058764;28;20513;-66
2023/04/08 05:29:05;;;;;;;192.37;24.40;;;5.40;99.90;;;;;;5058409;28;20907;-66
2023/04/08 05:31:32;;;;;;;103.03;15.47;;;5.40;99.90;;;;;;5058846;28;20465;-66
2023/04/08 05:33:59;;;;;;;113.27;16.67;;;5.40;99.90;;;;;;5057855;28;20485;-66
2023/04/08 05:36:28;;;;;;;97.30;27.20;;;5.40;99.90;;;;;;5058792;28;20466;-66
2023/04/08 05:38:55;;;;;;;232.53;23.03;;;5.30;99.90;;;;;;5057274;28;20573;-66
2023/04/08 05:41:25;;;;;;;102.77;38.67;;;5.20;99.90;;;;;;5057351;28;20463;-65
2023/04/08 05:43:52;;;;;;;65.40;15.40;;;5.30;99.90;;;;;;5058326;28;20532;-65
2023/04/08 05:46:19;;;;;;;24.60;11.20;;;5.10;99.90;;;;;;5058762;28;20487;-66
2023/04/08 05:48:46;;;;;;;119.37;25.50;;;5.00;99.90;;;;;;5058199;28;20462;-66
2023/04/08 05:51:14;;;;;;;144.37;29.33;;;5.00;99.90;;;;;;5058223;28;20887;-66
2023/04/08 05:53:45;;;;;;;181.67;21.37;;;5.10;99.90;;;;;;5058073;28;20477;-66
2023/04/08 05:56:12;;;;;;;27.33;11.40;;;5.10;99.90;;;;;;5058686;28;20485;-66
2023/04/08 05:58:41;;;;;;;45.57;11.70;;;5.10;99.90;;;;;;5057394;28;20472;-66
2023/04/08 06:01:08;;;;;;;108.37;16.77;;;5.20;99.90;;;;;;5058098;28;20472;-66
2023/04/08 06:03:35;;;;;;;38.80;20.20;;;5.20;99.90;;;;;;5058222;28;20466;-66
2023/04/08 06:06:02;;;;;;;99.13;21.33;;;5.20;99.90;;;;;;5057190;28;20458;-66
2023/04/08 06:08:29;;;;;;;46.97;11.20;;;5.20;99.90;;;;;;5053399;28;20458;-66
2023/04/08 06:10:58;;;;;;;38.03;9.50;;;5.10;99.90;;;;;;5058271;28;20466;-66
2023/04/08 06:13:25;;;;;;;56.37;11.97;;;5.10;99.90;;;;;;5058307;28;20728;-66
2023/04/08 06:15:52;;;;;;;19.50;10.37;;;5.10;99.90;;;;;;5057964;28;20576;-66
2023/04/08 06:18:20;;;;;;;53.20;12.13;;;5.20;99.90;;;;;;5057899;28;20560;-66
2023/04/08 06:20:47;;;;;;;64.73;10.80;;;5.20;99.90;;;;;;5058047;28;20469;-66
2023/04/08 06:23:14;;;;;;;31.47;10.27;;;5.20;99.90;;;;;;5057838;28;20604;-66
2023/04/08 06:25:42;;;;;;;66.77;11.83;;;5.30;99.90;;;;;;5057003;28;20446;-66
2023/04/08 06:28:10;;;;;;;15.53;9.97;;;5.30;99.90;;;;;;5057590;28;20502;-65
2023/04/08 06:30:37;;;;;;;11.40;8.00;;;5.40;99.90;;;;;;5057468;28;20449;-66
2023/04/08 06:33:05;;;;;;;43.03;11.10;;;5.40;99.90;;;;;;5057803;28;20466;-66
2023/04/08 06:35:32;;;;;;;42.10;11.70;;;5.50;99.90;;;;;;5053331;28;20522;-65
2023/04/08 06:37:59;;;;;;;16.23;10.67;;;5.60;99.90;;;;;;5056592;28;20486;-66
2023/04/08 06:40:26;;;;;;;27.60;16.23;;;5.60;99.90;;;;;;5055728;28;20573;-66
2023/04/08 06:42:54;;;;;;;22.37;12.27;;;5.70;99.90;;;;;;5055320;28;20472;-66
2023/04/08 06:45:23;;;;;;;32.80;10.53;;;5.70;99.90;;;;;;5055386;28;20462;-65
2023/04/08 06:47:50;;;;;;;22.27;11.00;;;5.80;99.90;;;;;;5054679;28;20469;-65
2023/04/08 06:50:17;;;;;;;24.63;10.70;;;5.80;99.90;;;;;;5054992;28;20472;-65
2023/04/08 06:52:45;;;;;;;23.53;10.03;;;5.90;99.90;;;;;;5051761;28;20474;-65
2023/04/08 06:55:12;;;;;;;22.33;10.70;;;5.90;99.90;;;;;;5073897;28;21221;-65
2023/04/08 06:57:39;;;;;;;30.93;10.50;;;6.00;99.90;;;;;;5075593;28;20899;-65
2023/04/08 07:00:07;;;;;;;40.30;11.60;;;6.10;99.90;;;;;;5074746;28;20469;-65
2023/04/08 07:02:36;;;;;;;32.43;12.07;;;6.00;99.90;;;;;;5075260;28;20889;-65
2023/04/08 07:05:03;;;;;;;17.50;11.33;;;6.10;99.90;;;;;;5074374;28;20928;-65
2023/04/08 07:07:31;;;;;;;18.23;12.27;;;6.10;99.90;;;;;;5053721;28;20516;-66
2023/04/08 07:09:58;;;;;;;17.10;11.97;;;6.20;99.90;;;;;;5039387;28;20912;-66
2023/04/08 07:12:25;;;;;;;16.17;11.53;;;6.30;99.90;;;;;;5035509;28;20463;-66
2023/04/08 07:14:53;;;;;;;16.80;11.50;;;6.40;99.90;;;;;;5042591;28;20489;-65
2023/04/08 07:17:20;;;;;;;17.23;12.03;;;6.60;99.90;;;;;;5055211;28;20816;-65
2023/04/08 07:19:49;;;;;;;16.47;11.57;;;6.70;99.90;;;;;;5055727;28;20468;-65
2023/04/08 07:22:16;;;;;;;18.77;12.07;;;6.80;99.90;;;;;;5059712;28;20458;-65
2023/04/08 07:24:48;;;;;;;16.73;11.27;;;6.80;99.90;;;;;;5060993;28;20762;-65
2023/04/08 07:27:16;;;;;;;16.60;11.13;;;6.80;99.90;;;;;;5059794;28;20462;-65
2023/04/08 07:29:43;;;;;;;18.03;11.90;;;6.80;99.90;;;;;;5059284;28;20466;-65
2023/04/08 07:32:10;;;;;;;18.80;12.10;;;6.90;99.90;;;;;;5057958;28;20600;-65
2023/04/08 07:34:37;;;;;;;22.83;13.87;;;6.90;99.90;;;;;;5058286;28;20643;-65
2023/04/08 07:37:05;;;;;;;18.83;12.90;;;6.70;99.90;;;;;;5057682;28;20521;-65
2023/04/08 07:39:33;;;;;;;24.83;13.80;;;6.90;99.90;;;;;;5058927;28;20458;-65
2023/04/08 07:42:00;;;;;;;22.13;12.73;;;7.10;99.90;;;;;;5056406;28;20474;-65
2023/04/08 07:44:27;;;;;;;22.37;12.63;;;7.20;99.90;;;;;;5059484;28;20458;-65
2023/04/08 07:46:54;;;;;;;23.77;14.00;;;7.20;99.90;;;;;;5059800;28;20564;-65
2023/04/08 07:49:21;;;;;;;21.43;12.70;;;7.30;99.90;;;;;;5054991;28;20481;-65
2023/04/08 07:51:48;;;;;;;21.60;13.20;;;7.40;99.90;;;;;;5053800;28;20474;-65
2023/04/08 07:54:17;;;;;;;20.87;13.43;;;7.40;99.90;;;;;;5055280;28;20462;-65
2023/04/08 07:56:44;;;;;;;21.83;13.47;;;7.50;99.90;;;;;;5055569;28;20906;-65
2023/04/08 07:59:11;;;;;;;22.70;14.03;;;7.70;99.90;;;;;;5056622;28;20504;-65
2023/04/08 08:01:39;;;;;;;24.40;15.17;;;7.60;99.90;;;;;;5057294;28;20820;-65
2023/04/08 08:04:06;;;;;;;26.20;14.50;;;7.70;99.90;;;;;;5057252;28;20456;-65
2023/04/08 08:06:33;;;;;;;26.77;16.43;;;7.80;99.90;;;;;;5058762;28;20461;-65
2023/04/08 08:09:03;;;;;;;24.17;14.63;;;7.90;99.90;;;;;;5056446;28;20495;-65
2023/04/08 08:11:31;;;;;;;27.90;15.63;;;8.00;99.90;;;;;;5047308;28;20482;-65
2023/04/08 08:14:03;;;;;;;28.93;16.97;;;7.90;99.90;;;;;;5036828;28;20540;-65
2023/04/08 08:16:33;;;;;;;28.00;17.07;;;8.10;99.90;;;;;;5035192;28;20501;-67
2023/04/08 08:19:00;;;;;;;26.37;17.27;;;8.10;99.90;;;;;;5035239;28;20512;-67
2023/04/08 08:21:27;;;;;;;30.80;21.30;;;8.20;99.90;;;;;;5035660;28;20463;-67
2023/04/08 08:23:55;;;;;;;33.87;21.63;;;8.20;99.90;;;;;;5035136;28;20658;-67
2023/04/08 08:26:23;;;;;;;44.33;25.57;;;8.10;99.90;;;;;;5036430;28;20469;-67
2023/04/08 08:28:52;;;;;;;37.93;24.67;;;7.90;99.90;;;;;;5036942;28;20506;-67
2023/04/08 08:31:19;;;;;;;44.50;26.97;;;7.90;99.90;;;;;;5038505;28;20474;-67
2023/04/08 08:33:46;;;;;;;42.00;25.80;;;7.90;99.90;;;;;;5038929;28;20887;-67
2023/04/08 08:36:14;;;;;;;46.30;26.70;;;7.90;99.90;;;;;;5038487;28;20762;-67
2023/04/08 08:38:41;;;;;;;40.80;27.17;;;8.10;99.90;;;;;;5038472;28;20501;-67
2023/04/08 08:41:08;;;;;;;46.00;30.30;;;8.10;99.90;;;;;;5038402;28;20880;-68
2023/04/08 08:43:35;;;;;;;42.10;28.37;;;8.30;99.90;;;;;;5038242;28;20459;-68
2023/04/08 08:46:04;;;;;;;45.13;29.27;;;8.60;99.90;;;;;;5037866;28;20505;-68
2023/04/08 08:48:32;;;;;;;45.87;28.60;;;8.60;99.90;;;;;;5038183;28;20463;-68
2023/04/08 08:51:00;;;;;;;42.10;26.07;;;8.70;99.90;;;;;;5038332;28;20467;-68
2023/04/08 08:53:30;;;;;;;39.70;26.37;;;8.60;99.90;;;;;;5039419;28;20466;-68
2023/04/08 08:55:57;;;;;;;41.53;25.53;;;8.80;99.90;;;;;;5039534;28;20491;-68
2023/04/08 08:58:27;;;;;;;33.37;24.03;;;8.60;99.90;;;;;;5048248;28;20481;-68
2023/04/08 09:00:54;;;;;;;29.80;22.87;;;8.70;99.90;;;;;;5056650;28;20527;-68
2023/04/08 09:03:24;;;;;;;45.87;24.63;;;8.70;99.90;;;;;;5058678;28;20478;-68
2023/04/08 09:05:52;;;;;;;31.63;24.83;;;8.50;99.90;;;;;;5059262;28;20474;-68
2023/04/08 09:08:30;;;;;;;28.03;21.27;;;8.60;99.90;;;;;;5059299;28;20462;-68
2023/04/08 09:11:11;;;;;;;29.10;23.50;;;8.50;99.90;;;;;;5059381;28;20897;-68
2023/04/08 09:13:39;;;;;;;30.50;22.33;;;8.40;99.90;;;;;;5058464;28;20875;-68
2023/04/08 09:16:07;;;;;;;29.87;23.20;;;8.30;99.90;;;;;;5059293;28;20596;-68
2023/04/08 09:18:37;;;;;;;32.97;24.17;;;8.40;99.90;;;;;;5059013;28;20564;-68
2023/04/08 09:21:05;;;;;;;29.33;22.47;;;8.30;99.90;;;;;;5058199;28;20466;-68
2023/04/08 09:23:40;;;;;;;30.07;21.70;;;8.20;99.90;;;;;;5058825;28;20524;-68
2023/04/08 09:26:11;;;;;;;28.30;22.67;;;8.20;99.90;;;;;;5058629;28;20458;-68
2023/04/08 09:28:39;;;;;;;26.57;22.00;;;8.40;99.90;;;;;;5058315;28;20824;-68
2023/04/08 09:31:23;;;;;;;26.90;21.60;;;8.30;99.90;;;;;;5059158;28;20470;-68
2023/04/08 09:33:55;;;;;;;27.67;22.40;;;8.40;99.90;;;;;;5059292;28;20466;-68
2023/04/08 09:36:22;;;;;;;31.90;24.70;;;8.50;99.90;;;;;;5058221;28;20935;-68
2023/04/08 09:38:49;;;;;;;31.23;24.60;;;8.80;99.90;;;;;;5057510;28;20489;-67
2023/04/08 09:41:17;;;;;;;31.90;25.57;;;9.30;99.90;;;;;;5057613;28;20728;-68
2023/04/08 09:43:49;;;;;;;33.77;26.43;;;9.70;99.90;;;;;;5057688;28;20898;-68
2023/04/08 09:46:17;;;;;;;30.57;26.50;;;10.20;99.90;;;;;;5057696;28;20561;-68
2023/04/08 09:48:55;;;;;;;32.70;26.53;;;9.90;1.00;;;;;;5058409;28;20899;-68
2023/04/08 09:51:24;;;;;;;31.23;24.80;;;10.10;99.90;;;;;;5058441;28;20466;-68
2023/04/08 09:53:59;;;;;;;30.20;25.03;;;10.40;99.90;;;;;;5057412;28;20462;-68
2023/04/08 09:56:31;;;;;;;28.73;23.27;;;10.50;41.00;;;;;;5054944;28;20525;-68
2023/04/08 09:59:02;;;;;;;26.53;22.70;;;10.20;1.00;;;;;;5057748;28;20895;-68
2023/04/08 10:01:38;;;;;;;24.97;22.30;;;10.20;1.00;;;;;;5057243;28;20768;-67
2023/04/08 10:04:12;;;;;;;25.67;22.67;;;10.40;1.00;;;;;;5057677;28;20749;-68
2023/04/08 10:06:41;;;;;;;23.77;19.40;;;10.30;1.00;;;;;;5056156;28;20462;-68
2023/04/08 10:09:09;;;;;;;21.43;16.77;;;10.40;1.00;;;;;;5057885;28;20880;-68
2023/04/08 10:11:36;;;;;;;21.30;18.10;;;10.40;1.00;;;;;;5056152;28;20462;-68
2023/04/08 10:14:04;;;;;;;18.17;16.10;;;10.30;1.00;;;;;;5056209;28;20873;-68
2023/04/08 10:16:31;;;;;;;17.50;15.47;;;10.20;1.00;;;;;;5055692;28;20520;-68
2023/04/08 10:18:58;;;;;;;18.20;16.20;;;10.20;1.00;;;;;;5057367;28;20539;-68
2023/04/08 10:21:38;;;;;;;15.53;13.77;;;9.90;1.00;;;;;;5055260;28;20466;-68
2023/04/08 10:24:10;;;;;;;16.87;13.43;;;9.50;1.00;;;;;;5054150;28;20470;-68
2023/04/08 10:26:39;;;;;;;16.10;14.37;;;9.30;1.00;;;;;;5055802;28;20484;-68
2023/04/08 10:29:34;;;;;;;15.50;13.80;;;9.50;1.00;;;;;;5055786;28;20462;-68
2023/04/08 10:32:01;;;;;;;14.13;11.67;;;9.80;1.00;;;;;;5055851;28;20485;-68
2023/04/08 10:34:29;;;;;;;17.33;13.10;;;9.70;1.00;;;;;;5056535;28;20599;-68
2023/04/08 10:37:02;;;;;;;16.57;14.67;;;9.60;1.00;;;;;;5055460;28;20495;-68
2023/04/08 10:39:31;;;;;;;15.33;13.67;;;9.50;1.00;;;;;;5057056;28;20469;-68
2023/04/08 10:42:01;;;;;;;15.80;12.10;;;9.70;1.00;;;;;;5056917;28;20965;-68
2023/04/08 10:44:28;;;;;;;15.20;12.43;;;9.80;1.00;;;;;;5042981;28;20553;-67
2023/04/08 10:46:55;;;;;;;13.30;11.53;;;10.00;1.00;;;;;;5056745;28;20910;-68
2023/04/08 10:49:22;;;;;;;14.40;11.93;;;10.20;1.00;;;;;;5056682;28;20466;-67
2023/04/08 10:51:50;;;;;;;15.63;11.97;;;10.00;1.00;;;;;;5056548;28;20440;-67
2023/04/08 10:54:19;;;;;;;13.83;11.70;;;10.10;1.00;;;;;;5057086;28;20468;-67
2023/04/08 10:56:48;;;;;;;13.83;12.23;;;9.90;1.00;;;;;;5055712;28;20800;-67
2023/04/08 10:59:16;;;;;;;13.93;11.60;;;9.90;1.00;;;;;;5055478;28;20468;-67
2023/04/08 11:01:46;;;;;;;15.20;12.50;;;9.80;1.00;;;;;;5055791;28;20485;-67
2023/04/08 11:04:18;;;;;;;15.07;13.47;;;9.90;1.00;;;;;;5055697;28;20485;-67
2023/04/08 11:06:46;;;;;;;15.67;12.57;;;9.90;1.00;;;;;;5055200;28;20490;-68
2023/04/08 11:09:15;;;;;;;15.40;12.73;;;9.70;1.00;;;;;;5054799;28;20515;-67
2023/04/08 11:11:45;;;;;;;15.77;13.70;;;9.70;1.00;;;;;;5054293;28;20773;-67
2023/04/08 11:14:13;;;;;;;13.53;12.23;;;9.80;1.00;;;;;;5055910;28;20454;-67
2023/04/08 11:16:40;;;;;;;15.23;13.63;;;9.70;1.00;;;;;;5055539;28;21025;-67
2023/04/08 11:19:08;;;;;;;15.20;13.73;;;9.80;1.00;;;;;;5056499;28;20462;-67
2023/04/08 11:21:37;;;;;;;12.33;11.07;;;10.10;1.00;;;;;;5056787;28;20879;-67
2023/04/08 11:24:12;;;;;;;11.30;10.13;;;10.30;1.00;;;;;;5051179;28;20475;-66
2023/04/08 11:26:40;;;;;;;13.30;11.87;;;10.20;1.00;;;;;;5052182;28;20466;-67
2023/04/08 11:29:13;;;;;;;13.80;11.67;;;10.20;1.00;;;;;;5051335;28;20504;-67
2023/04/08 11:31:41;;;;;;;13.23;11.73;;;10.40;1.00;;;;;;5053132;28;20458;-67
2023/04/08 11:34:08;;;;;;;13.87;12.47;;;10.50;1.00;;;;;;5053492;28;20785;-67
2023/04/08 11:36:36;;;;;;;12.87;11.53;;;10.70;1.00;;;;;;5052381;28;20494;-68
2023/04/08 11:39:10;;;;;;;12.67;10.83;;;10.80;1.00;;;;;;5052539;28;20458;-67
2023/04/08 11:41:40;;;;;;;11.60;10.13;;;10.90;1.00;;;;;;5052834;28;20461;-68
2023/04/08 11:44:09;;;;;;;8.23;7.43;;;10.90;1.00;;;;;;5053516;28;20462;-67
2023/04/08 11:46:39;;;;;;;10.13;8.63;;;10.90;1.00;;;;;;5053877;28;20981;-67
2023/04/08 11:49:08;;;;;;;10.40;9.27;;;10.90;1.00;;;;;;5052564;28;20469;-67
2023/04/08 11:51:53;;;;;;;8.93;8.03;;;10.90;1.00;;;;;;5054856;28;20468;-67
2023/04/08 11:54:27;;;;;;;8.60;7.40;;;11.10;1.00;;;;;;5054206;28;20496;-67
2023/04/08 11:56:54;;;;;;;8.77;7.53;;;11.20;1.00;;;;;;5054705;28;20953;-67
2023/04/08 11:59:23;;;;;;;8.27;7.47;;;11.10;1.00;;;;;;5055050;28;20466;-67
2023/04/08 12:01:52;;;;;;;8.07;7.27;;;11.10;1.00;;;;;;5055030;28;20472;-67
2023/04/08 12:04:21;;;;;;;7.67;6.97;;;11.10;1.00;;;;;;5055830;28;20447;-68
2023/04/08 12:06:48;;;;;;;9.07;8.17;;;11.30;1.00;;;;;;5057101;28;20755;-66
2023/04/08 12:09:16;;;;;;;7.83;7.03;;;11.70;1.00;;;;;;5060176;28;20466;-67
2023/04/08 12:11:46;;;;;;;8.77;7.73;;;12.20;1.00;;;;;;5059868;28;20902;-66
2023/04/08 12:14:13;;;;;;;8.60;7.63;;;12.60;1.00;;;;;;5060102;28;20465;-66
2023/04/08 12:16:42;;;;;;;8.13;7.40;;;12.60;1.00;;;;;;5060073;28;20494;-66
2023/04/08 12:19:09;;;;;;;8.87;7.97;;;12.80;1.00;;;;;;5060140;28;20549;-66
2023/04/08 12:21:37;;;;;;;8.53;7.70;;;13.50;1.00;;;;;;5059391;28;20565;-65
2023/04/08 12:24:04;;;;;;;8.60;7.60;;;13.50;1.00;;;;;;5059502;28;20494;-66
2023/04/08 12:26:31;;;;;;;9.57;8.67;;;13.20;1.00;;;;;;5059226;28;20462;-65
2023/04/08 12:28:58;;;;;;;9.67;8.80;;;13.00;1.00;;;;;;5059563;28;20468;-65
2023/04/08 12:31:26;;;;;;;9.30;8.40;;;12.90;1.00;;;;;;5058975;28;20462;-65
2023/04/08 12:33:55;;;;;;;10.57;9.57;;;13.00;1.00;;;;;;5059139;28;20902;-65
2023/04/08 12:36:22;;;;;;;11.50;10.40;;;13.10;1.00;;;;;;5058277;28;20968;-67
2023/04/08 12:38:49;;;;;;;11.10;10.00;;;12.80;1.00;;;;;;5057916;28;20496;-66
2023/04/08 12:41:16;;;;;;;10.57;9.60;;;12.80;1.00;;;;;;5057715;28;20860;-65
2023/04/08 12:43:43;;;;;;;12.47;11.30;;;12.80;1.00;;;;;;5058301;28;20462;-65
2023/04/08 12:46:11;;;;;;;11.03;9.93;;;12.60;1.00;;;;;;5057607;28;20965;-66